sensor_id;sensor_type;location;lat;lon;timestamp;P1;durP1;ratioP1;P2;durP2;ratioP2
7587;SDS011;3835;48.850;8.938;2023-04-15T00:00:05;15.10;;;14.00;;
7587;SDS011;3835;48.850;8.938;2023-04-15T00:02:32;14.67;;;13.77;;
7587;SDS011;3835;48.850;8.938;2023-04-15T00:05:00;15.63;;;14.43;;
7587;SDS011;3835;48.850;8.938;2023-04-15T00:07:27;14.30;;;13.17;;
7587;SDS011;3835;48.850;8.938;2023-04-15T00:09:54;15.70;;;14.80;;
7587;SDS011;3835;48.850;8.938;2023-04-15T00:12:21;14.97;;;13.83;;
7587;SDS011;3835;48.850;8.938;2023-04-15T00:14:48;15.93;;;14.90;;
7587;SDS011;3835;48.850;8.938;2023-04-15T00:17:15;15.43;;;14.33;;
7587;SDS011;3835;48.850;8.938;2023-04-15T00:19:42;17.13;;;16.13;;
7587;SDS011;3835;48.850;8.938;2023-04-15T00:22:11;17.03;;;15.83;;
7587;SDS011;3835;48.850;8.938;2023-04-15T00:24:38;15.50;;;14.20;;
7587;SDS011;3835;48.850;8.938;2023-04-15T00:27:05;16.63;;;15.70;;
7587;SDS011;3835;48.850;8.938;2023-04-15T00:29:32;18.13;;;17.10;;
7587;SDS011;3835;48.850;8.938;2023-04-15T00:31:59;16.87;;;15.97;;
7587;SDS011;3835;48.850;8.938;2023-04-15T00:34:26;18.03;;;16.87;;
7587;SDS011;3835;48.850;8.938;2023-04-15T00:36:53;16.97;;;15.93;;
7587;SDS011;3835;48.850;8.938;2023-04-15T00:39:22;15.57;;;14.30;;
7587;SDS011;3835;48.850;8.938;2023-04-15T00:41:48;17.07;;;15.83;;
7587;SDS011;3835;48.850;8.938;2023-04-15T00:44:15;15.70;;;14.90;;
7587;SDS011;3835;48.850;8.938;2023-04-15T00:46:42;15.10;;;14.27;;
7587;SDS011;3835;48.850;8.938;2023-04-15T00:49:10;14.50;;;13.53;;
7587;SDS011;3835;48.850;8.938;2023-04-15T00:51:38;13.83;;;12.77;;
7587;SDS011;3835;48.850;8.938;2023-04-15T00:54:05;13.87;;;12.97;;
7587;SDS011;3835;48.850;8.938;2023-04-15T00:56:34;13.57;;;12.57;;
7587;SDS011;3835;48.850;8.938;2023-04-15T00:59:03;12.93;;;12.07;;
7587;SDS011;3835;48.850;8.938;2023-04-15T01:01:32;14.27;;;13.13;;
7587;SDS011;3835;48.850;8.938;2023-04-15T01:04:00;12.07;;;11.27;;
7587;SDS011;3835;48.850;8.938;2023-04-15T01:06:28;13.57;;;12.53;;
7587;SDS011;3835;48.850;8.938;2023-04-15T01:08:56;13.90;;;13.00;;
7587;SDS011;3835;48.850;8.938;2023-04-15T01:11:24;13.83;;;12.73;;
7587;SDS011;3835;48.850;8.938;2023-04-15T01:13:52;13.33;;;12.43;;
7587;SDS011;3835;48.850;8.938;2023-04-15T01:16:21;13.27;;;12.37;;
7587;SDS011;3835;48.850;8.938;2023-04-15T01:18:49;13.80;;;12.90;;
7587;SDS011;3835;48.850;8.938;2023-04-15T01:21:16;13.00;;;12.17;;
7587;SDS011;3835;48.850;8.938;2023-04-15T01:23:43;14.13;;;13.33;;
7587;SDS011;3835;48.850;8.938;2023-04-15T01:26:14;13.13;;;12.23;;
7587;SDS011;3835;48.850;8.938;2023-04-15T01:28:41;14.10;;;13.30;;
7587;SDS011;3835;48.850;8.938;2023-04-15T01:31:08;14.10;;;13.30;;
7587;SDS011;3835;48.850;8.938;2023-04-15T01:33:37;12.47;;;11.80;;
7587;SDS011;3835;48.850;8.938;2023-04-15T01:36:05;11.77;;;11.07;;
7587;SDS011;3835;48.850;8.938;2023-04-15T01:38:34;12.93;;;12.17;;
7587;SDS011;3835;48.850;8.938;2023-04-15T01:41:01;13.10;;;12.30;;
7587;SDS011;3835;48.850;8.938;2023-04-15T01:43:30;13.07;;;12.07;;
7587;SDS011;3835;48.850;8.938;2023-04-15T01:45:57;14.57;;;13.60;;
7587;SDS011;3835;48.850;8.938;2023-04-15T01:48:23;13.30;;;12.40;;
7587;SDS011;3835;48.850;8.938;2023-04-15T01:50:51;13.83;;;12.73;;
7587;SDS011;3835;48.850;8.938;2023-04-15T01:53:21;13.30;;;12.67;;
7587;SDS011;3835;48.850;8.938;2023-04-15T01:55:48;12.63;;;11.73;;
7587;SDS011;3835;48.850;8.938;2023-04-15T01:58:15;13.80;;;12.80;;
7587;SDS011;3835;48.850;8.938;2023-04-15T02:00:43;13.67;;;12.87;;
7587;SDS011;3835;48.850;8.938;2023-04-15T02:03:10;13.60;;;12.80;;
7587;SDS011;3835;48.850;8.938;2023-04-15T02:05:37;13.60;;;12.60;;
7587;SDS011;3835;48.850;8.938;2023-04-15T02:08:03;12.53;;;11.73;;
7587;SDS011;3835;48.850;8.938;2023-04-15T02:10:30;14.10;;;13.27;;
7587;SDS011;3835;48.850;8.938;2023-04-15T02:12:57;12.60;;;11.83;;
7587;SDS011;3835;48.850;8.938;2023-04-15T02:15:24;11.70;;;10.77;;
7587;SDS011;3835;48.850;8.938;2023-04-15T02:17:52;12.73;;;12.03;;
7587;SDS011;3835;48.850;8.938;2023-04-15T02:20:19;12.93;;;11.97;;
7587;SDS011;3835;48.850;8.938;2023-04-15T02:22:46;13.23;;;12.13;;
7587;SDS011;3835;48.850;8.938;2023-04-15T02:25:13;13.03;;;12.10;;
7587;SDS011;3835;48.850;8.938;2023-04-15T02:27:41;13.10;;;12.20;;
7587;SDS011;3835;48.850;8.938;2023-04-15T02:30:08;13.83;;;13.13;;
7587;SDS011;3835;48.850;8.938;2023-04-15T02:32:35;12.93;;;12.03;;
7587;SDS011;3835;48.850;8.938;2023-04-15T02:35:04;12.87;;;11.77;;
7587;SDS011;3835;48.850;8.938;2023-04-15T02:37:32;14.13;;;13.10;;
7587;SDS011;3835;48.850;8.938;2023-04-15T02:40:05;12.53;;;11.63;;
7587;SDS011;3835;48.850;8.938;2023-04-15T02:42:33;12.93;;;12.13;;
7587;SDS011;3835;48.850;8.938;2023-04-15T02:45:00;14.23;;;13.03;;
7587;SDS011;3835;48.850;8.938;2023-04-15T02:47:27;13.97;;;12.70;;
7587;SDS011;3835;48.850;8.938;2023-04-15T02:49:54;13.60;;;12.67;;
7587;SDS011;3835;48.850;8.938;2023-04-15T02:52:23;11.70;;;10.77;;
7587;SDS011;3835;48.850;8.938;2023-04-15T02:54:50;12.90;;;12.13;;
7587;SDS011;3835;48.850;8.938;2023-04-15T02:57:17;14.40;;;13.43;;
7587;SDS011;3835;48.850;8.938;2023-04-15T02:59:44;13.93;;;12.93;;
7587;SDS011;3835;48.850;8.938;2023-04-15T03:02:11;14.20;;;13.30;;
7587;SDS011;3835;48.850;8.938;2023-04-15T03:04:38;12.67;;;11.87;;
7587;SDS011;3835;48.850;8.938;2023-04-15T03:07:04;12.87;;;11.90;;
7587;SDS011;3835;48.850;8.938;2023-04-15T03:09:32;12.23;;;11.40;;
7587;SDS011;3835;48.850;8.938;2023-04-15T03:12:00;13.17;;;12.47;;
7587;SDS011;3835;48.850;8.938;2023-04-15T03:14:27;12.67;;;11.73;;
7587;SDS011;3835;48.850;8.938;2023-04-15T03:16:53;12.50;;;11.70;;
7587;SDS011;3835;48.850;8.938;2023-04-15T03:19:20;13.53;;;12.53;;
7587;SDS011;3835;48.850;8.938;2023-04-15T03:21:47;13.90;;;12.60;;
7587;SDS011;3835;48.850;8.938;2023-04-15T03:24:14;13.27;;;12.30;;
7587;SDS011;3835;48.850;8.938;2023-04-15T03:26:42;12.00;;;11.30;;
7587;SDS011;3835;48.850;8.938;2023-04-15T03:29:08;12.83;;;11.90;;
7587;SDS011;3835;48.850;8.938;2023-04-15T03:31:35;13.20;;;12.27;;
7587;SDS011;3835;48.850;8.938;2023-04-15T03:34:02;12.80;;;11.97;;
7587;SDS011;3835;48.850;8.938;2023-04-15T03:36:29;12.03;;;11.33;;
7587;SDS011;3835;48.850;8.938;2023-04-15T03:38:57;13.47;;;12.57;;
7587;SDS011;3835;48.850;8.938;2023-04-15T03:41:23;13.63;;;12.60;;
7587;SDS011;3835;48.850;8.938;2023-04-15T03:43:52;14.17;;;13.07;;
7587;SDS011;3835;48.850;8.938;2023-04-15T03:46:18;13.07;;;12.27;;
7587;SDS011;3835;48.850;8.938;2023-04-15T03:48:45;13.67;;;12.73;;
7587;SDS011;3835;48.850;8.938;2023-04-15T03:51:12;12.70;;;11.87;;
7587;SDS011;3835;48.850;8.938;2023-04-15T03:53:39;13.20;;;12.43;;
7587;SDS011;3835;48.850;8.938;2023-04-15T03:56:06;12.97;;;12.07;;
7587;SDS011;3835;48.850;8.938;2023-04-15T03:58:33;12.47;;;11.77;;
7587;SDS011;3835;48.850;8.938;2023-04-15T04:01:01;14.73;;;13.57;;
7587;SDS011;3835;48.850;8.938;2023-04-15T04:03:28;14.97;;;13.63;;
7587;SDS011;3835;48.850;8.938;2023-04-15T04:05:54;13.87;;;12.60;;
7587;SDS011;3835;48.850;8.938;2023-04-15T04:08:21;13.70;;;12.80;;
7587;SDS011;3835;48.850;8.938;2023-04-15T04:10:48;14.80;;;13.80;;
7587;SDS011;3835;48.850;8.938;2023-04-15T04:13:15;13.00;;;12.00;;
7587;SDS011;3835;48.850;8.938;2023-04-15T04:15:42;13.47;;;12.33;;
7587;SDS011;3835;48.850;8.938;2023-04-15T04:18:10;13.07;;;12.13;;
7587;SDS011;3835;48.850;8.938;2023-04-15T04:20:36;12.73;;;11.83;;
7587;SDS011;3835;48.850;8.938;2023-04-15T04:23:03;13.33;;;12.50;;
7587;SDS011;3835;48.850;8.938;2023-04-15T04:25:30;12.60;;;11.87;;
7587;SDS011;3835;48.850;8.938;2023-04-15T04:27:57;14.00;;;13.00;;
7587;SDS011;3835;48.850;8.938;2023-04-15T04:30:24;13.47;;;12.40;;
7587;SDS011;3835;48.850;8.938;2023-04-15T04:32:50;13.17;;;12.23;;
7587;SDS011;3835;48.850;8.938;2023-04-15T04:35:19;13.30;;;12.40;;
7587;SDS011;3835;48.850;8.938;2023-04-15T04:37:45;12.70;;;11.90;;
7587;SDS011;3835;48.850;8.938;2023-04-15T04:40:12;13.30;;;12.60;;
7587;SDS011;3835;48.850;8.938;2023-04-15T04:42:39;14.43;;;13.37;;
7587;SDS011;3835;48.850;8.938;2023-04-15T04:45:06;14.27;;;13.17;;
7587;SDS011;3835;48.850;8.938;2023-04-15T04:47:34;15.63;;;14.37;;
7587;SDS011;3835;48.850;8.938;2023-04-15T04:50:00;13.63;;;12.67;;
7587;SDS011;3835;48.850;8.938;2023-04-15T04:52:29;14.17;;;13.20;;
7587;SDS011;3835;48.850;8.938;2023-04-15T04:54:55;13.30;;;12.40;;
7587;SDS011;3835;48.850;8.938;2023-04-15T04:57:22;13.53;;;12.57;;
7587;SDS011;3835;48.850;8.938;2023-04-15T04:59:49;13.83;;;12.67;;
7587;SDS011;3835;48.850;8.938;2023-04-15T05:02:16;13.97;;;12.77;;
7587;SDS011;3835;48.850;8.938;2023-04-15T05:04:43;13.40;;;12.30;;
7587;SDS011;3835;48.850;8.938;2023-04-15T05:07:10;14.40;;;13.33;;
7587;SDS011;3835;48.850;8.938;2023-04-15T05:09:38;14.50;;;13.43;;
7587;SDS011;3835;48.850;8.938;2023-04-15T05:12:05;13.30;;;12.60;;
7587;SDS011;3835;48.850;8.938;2023-04-15T05:14:33;12.20;;;11.60;;
7587;SDS011;3835;48.850;8.938;2023-04-15T05:16:59;13.40;;;12.60;;
7587;SDS011;3835;48.850;8.938;2023-04-15T05:19:26;14.80;;;13.60;;
7587;SDS011;3835;48.850;8.938;2023-04-15T05:21:53;15.40;;;14.23;;
7587;SDS011;3835;48.850;8.938;2023-04-15T05:24:20;16.27;;;14.77;;
7587;SDS011;3835;48.850;8.938;2023-04-15T05:26:48;14.93;;;13.77;;
7587;SDS011;3835;48.850;8.938;2023-04-15T05:29:15;14.33;;;13.27;;
7587;SDS011;3835;48.850;8.938;2023-04-15T05:31:42;13.47;;;12.37;;
7587;SDS011;3835;48.850;8.938;2023-04-15T05:34:08;14.20;;;13.20;;
7587;SDS011;3835;48.850;8.938;2023-04-15T05:36:35;13.03;;;12.13;;
7587;SDS011;3835;48.850;8.938;2023-04-15T05:39:02;13.40;;;12.33;;
7587;SDS011;3835;48.850;8.938;2023-04-15T05:41:29;13.60;;;12.70;;
7587;SDS011;3835;48.850;8.938;2023-04-15T05:43:57;12.47;;;11.87;;
7587;SDS011;3835;48.850;8.938;2023-04-15T05:46:24;16.43;;;14.93;;
7587;SDS011;3835;48.850;8.938;2023-04-15T05:48:51;16.07;;;14.87;;
7587;SDS011;3835;48.850;8.938;2023-04-15T05:51:18;17.70;;;16.33;;
7587;SDS011;3835;48.850;8.938;2023-04-15T05:53:45;13.97;;;13.07;;
7587;SDS011;3835;48.850;8.938;2023-04-15T05:56:12;13.57;;;12.77;;
7587;SDS011;3835;48.850;8.938;2023-04-15T05:58:38;15.10;;;14.00;;
7587;SDS011;3835;48.850;8.938;2023-04-15T06:01:06;13.10;;;12.20;;
7587;SDS011;3835;48.850;8.938;2023-04-15T06:03:33;14.50;;;13.60;;
7587;SDS011;3835;48.850;8.938;2023-04-15T06:06:00;12.73;;;11.53;;
7587;SDS011;3835;48.850;8.938;2023-04-15T06:08:27;13.03;;;11.93;;
7587;SDS011;3835;48.850;8.938;2023-04-15T06:10:54;11.70;;;10.97;;
7587;SDS011;3835;48.850;8.938;2023-04-15T06:13:21;13.43;;;12.13;;
7587;SDS011;3835;48.850;8.938;2023-04-15T06:15:48;13.10;;;11.93;;
7587;SDS011;3835;48.850;8.938;2023-04-15T06:18:16;12.23;;;11.53;;
7587;SDS011;3835;48.850;8.938;2023-04-15T06:20:43;12.50;;;11.70;;
7587;SDS011;3835;48.850;8.938;2023-04-15T06:23:09;12.87;;;11.87;;
7587;SDS011;3835;48.850;8.938;2023-04-15T06:25:36;13.17;;;12.37;;
7587;SDS011;3835;48.850;8.938;2023-04-15T06:28:03;14.10;;;13.10;;
7587;SDS011;3835;48.850;8.938;2023-04-15T06:30:30;12.77;;;11.83;;
7587;SDS011;3835;48.850;8.938;2023-04-15T06:32:57;12.30;;;11.33;;
7587;SDS011;3835;48.850;8.938;2023-04-15T06:35:25;12.83;;;11.93;;
7587;SDS011;3835;48.850;8.938;2023-04-15T06:37:52;12.57;;;11.37;;
7587;SDS011;3835;48.850;8.938;2023-04-15T06:40:19;12.03;;;11.33;;
7587;SDS011;3835;48.850;8.938;2023-04-15T06:42:46;11.93;;;11.13;;
7587;SDS011;3835;48.850;8.938;2023-04-15T06:45:12;12.07;;;11.10;;
7587;SDS011;3835;48.850;8.938;2023-04-15T06:47:40;13.13;;;12.03;;
7587;SDS011;3835;48.850;8.938;2023-04-15T06:50:07;12.73;;;11.90;;
7587;SDS011;3835;48.850;8.938;2023-04-15T06:52:36;12.30;;;11.50;;
7587;SDS011;3835;48.850;8.938;2023-04-15T06:55:03;12.60;;;11.77;;
7587;SDS011;3835;48.850;8.938;2023-04-15T06:57:31;11.43;;;10.53;;
7587;SDS011;3835;48.850;8.938;2023-04-15T06:59:58;12.27;;;11.47;;
7587;SDS011;3835;48.850;8.938;2023-04-15T07:02:25;12.60;;;11.80;;
7587;SDS011;3835;48.850;8.938;2023-04-15T07:04:52;12.23;;;11.53;;
7587;SDS011;3835;48.850;8.938;2023-04-15T07:07:19;13.33;;;12.53;;
7587;SDS011;3835;48.850;8.938;2023-04-15T07:09:47;12.67;;;11.93;;
7587;SDS011;3835;48.850;8.938;2023-04-15T07:12:15;12.33;;;11.23;;
7587;SDS011;3835;48.850;8.938;2023-04-15T07:14:42;12.50;;;11.57;;
7587;SDS011;3835;48.850;8.938;2023-04-15T07:17:09;11.87;;;11.17;;
7587;SDS011;3835;48.850;8.938;2023-04-15T07:19:36;11.20;;;10.40;;
7587;SDS011;3835;48.850;8.938;2023-04-15T07:22:03;11.53;;;10.73;;
7587;SDS011;3835;48.850;8.938;2023-04-15T07:24:30;11.33;;;10.33;;
7587;SDS011;3835;48.850;8.938;2023-04-15T07:26:58;10.83;;;10.27;;
7587;SDS011;3835;48.850;8.938;2023-04-15T07:29:25;11.30;;;10.40;;
7587;SDS011;3835;48.850;8.938;2023-04-15T07:31:52;11.67;;;10.63;;
7587;SDS011;3835;48.850;8.938;2023-04-15T07:34:21;11.13;;;10.37;;
7587;SDS011;3835;48.850;8.938;2023-04-15T07:36:48;12.07;;;11.30;;
7587;SDS011;3835;48.850;8.938;2023-04-15T07:39:15;11.43;;;10.70;;
7587;SDS011;3835;48.850;8.938;2023-04-15T07:41:43;11.37;;;10.50;;
7587;SDS011;3835;48.850;8.938;2023-04-15T07:44:11;11.50;;;10.73;;
7587;SDS011;3835;48.850;8.938;2023-04-15T07:46:38;11.53;;;10.67;;
7587;SDS011;3835;48.850;8.938;2023-04-15T07:49:05;11.43;;;10.67;;
7587;SDS011;3835;48.850;8.938;2023-04-15T07:51:32;11.00;;;10.23;;
7587;SDS011;3835;48.850;8.938;2023-04-15T07:53:59;11.27;;;10.47;;
7587;SDS011;3835;48.850;8.938;2023-04-15T07:56:28;11.07;;;10.23;;
7587;SDS011;3835;48.850;8.938;2023-04-15T07:58:55;11.57;;;10.87;;
7587;SDS011;3835;48.850;8.938;2023-04-15T08:01:23;12.07;;;11.37;;
7587;SDS011;3835;48.850;8.938;2023-04-15T08:03:49;11.00;;;10.03;;
7587;SDS011;3835;48.850;8.938;2023-04-15T08:06:17;11.00;;;9.97;;
7587;SDS011;3835;48.850;8.938;2023-04-15T08:08:43;11.73;;;11.03;;
7587;SDS011;3835;48.850;8.938;2023-04-15T08:11:11;11.27;;;10.57;;
7587;SDS011;3835;48.850;8.938;2023-04-15T08:13:38;13.30;;;12.40;;
7587;SDS011;3835;48.850;8.938;2023-04-15T08:16:12;10.93;;;10.33;;
7587;SDS011;3835;48.850;8.938;2023-04-15T08:18:43;12.53;;;11.63;;
7587;SDS011;3835;48.850;8.938;2023-04-15T08:21:10;12.23;;;11.37;;
7587;SDS011;3835;48.850;8.938;2023-04-15T08:23:37;12.37;;;11.43;;
7587;SDS011;3835;48.850;8.938;2023-04-15T08:26:04;10.97;;;10.37;;
7587;SDS011;3835;48.850;8.938;2023-04-15T08:28:31;13.70;;;12.57;;
7587;SDS011;3835;48.850;8.938;2023-04-15T08:30:58;12.47;;;11.77;;
7587;SDS011;3835;48.850;8.938;2023-04-15T08:33:25;12.80;;;11.80;;
7587;SDS011;3835;48.850;8.938;2023-04-15T08:35:54;10.20;;;9.50;;
7587;SDS011;3835;48.850;8.938;2023-04-15T08:38:21;13.57;;;12.87;;
7587;SDS011;3835;48.850;8.938;2023-04-15T08:40:48;12.67;;;11.93;;
7587;SDS011;3835;48.850;8.938;2023-04-15T08:43:18;11.97;;;11.23;;
7587;SDS011;3835;48.850;8.938;2023-04-15T08:45:48;11.13;;;10.47;;
7587;SDS011;3835;48.850;8.938;2023-04-15T08:48:16;13.50;;;12.57;;
7587;SDS011;3835;48.850;8.938;2023-04-15T08:50:44;11.60;;;10.83;;
7587;SDS011;3835;48.850;8.938;2023-04-15T08:53:13;12.10;;;11.50;;
7587;SDS011;3835;48.850;8.938;2023-04-15T08:55:41;12.70;;;11.83;;
7587;SDS011;3835;48.850;8.938;2023-04-15T08:58:09;12.97;;;12.27;;
7587;SDS011;3835;48.850;8.938;2023-04-15T09:00:37;11.23;;;10.57;;
7587;SDS011;3835;48.850;8.938;2023-04-15T09:03:04;12.30;;;11.57;;
7587;SDS011;3835;48.850;8.938;2023-04-15T09:05:32;11.37;;;10.73;;
7587;SDS011;3835;48.850;8.938;2023-04-15T09:07:59;12.20;;;11.30;;
7587;SDS011;3835;48.850;8.938;2023-04-15T09:10:27;11.70;;;11.07;;
7587;SDS011;3835;48.850;8.938;2023-04-15T09:12:54;13.23;;;12.50;;
7587;SDS011;3835;48.850;8.938;2023-04-15T09:15:22;13.27;;;12.47;;
7587;SDS011;3835;48.850;8.938;2023-04-15T09:17:51;11.83;;;11.23;;
7587;SDS011;3835;48.850;8.938;2023-04-15T09:20:18;11.97;;;11.13;;
7587;SDS011;3835;48.850;8.938;2023-04-15T09:22:46;12.67;;;11.90;;
7587;SDS011;3835;48.850;8.938;2023-04-15T09:25:28;11.47;;;10.77;;
7587;SDS011;3835;48.850;8.938;2023-04-15T09:27:55;11.43;;;10.73;;
7587;SDS011;3835;48.850;8.938;2023-04-15T09:30:23;12.00;;;11.37;;
7587;SDS011;3835;48.850;8.938;2023-04-15T09:32:51;12.30;;;11.60;;
7587;SDS011;3835;48.850;8.938;2023-04-15T09:35:19;10.80;;;10.33;;
7587;SDS011;3835;48.850;8.938;2023-04-15T09:37:46;11.40;;;10.90;;
7587;SDS011;3835;48.850;8.938;2023-04-15T09:40:13;12.50;;;11.37;;
7587;SDS011;3835;48.850;8.938;2023-04-15T09:42:57;11.63;;;11.03;;
7587;SDS011;3835;48.850;8.938;2023-04-15T09:45:23;12.23;;;11.53;;
7587;SDS011;3835;48.850;8.938;2023-04-15T09:47:51;12.87;;;11.73;;
7587;SDS011;3835;48.850;8.938;2023-04-15T09:50:18;12.23;;;11.47;;
7587;SDS011;3835;48.850;8.938;2023-04-15T09:52:46;11.77;;;10.87;;
7587;SDS011;3835;48.850;8.938;2023-04-15T09:55:13;11.87;;;11.17;;
7587;SDS011;3835;48.850;8.938;2023-04-15T09:57:41;12.20;;;11.43;;
7587;SDS011;3835;48.850;8.938;2023-04-15T10:00:10;12.43;;;11.53;;
7587;SDS011;3835;48.850;8.938;2023-04-15T10:02:38;11.53;;;10.93;;
7587;SDS011;3835;48.850;8.938;2023-04-15T10:05:07;11.30;;;10.70;;
7587;SDS011;3835;48.850;8.938;2023-04-15T10:07:36;12.70;;;12.00;;
7587;SDS011;3835;48.850;8.938;2023-04-15T10:10:05;13.00;;;12.30;;
7587;SDS011;3835;48.850;8.938;2023-04-15T10:12:33;12.17;;;11.37;;
7587;SDS011;3835;48.850;8.938;2023-04-15T10:15:03;11.93;;;11.13;;
7587;SDS011;3835;48.850;8.938;2023-04-15T10:17:33;10.87;;;10.27;;
7587;SDS011;3835;48.850;8.938;2023-04-15T10:20:01;11.40;;;10.80;;
7587;SDS011;3835;48.850;8.938;2023-04-15T10:22:30;10.67;;;10.07;;
7587;SDS011;3835;48.850;8.938;2023-04-15T10:24:57;11.73;;;11.10;;
7587;SDS011;3835;48.850;8.938;2023-04-15T10:27:25;11.97;;;11.20;;
7587;SDS011;3835;48.850;8.938;2023-04-15T10:29:53;11.60;;;10.90;;
7587;SDS011;3835;48.850;8.938;2023-04-15T10:32:20;12.50;;;11.63;;
7587;SDS011;3835;48.850;8.938;2023-04-15T10:34:49;11.67;;;10.77;;
7587;SDS011;3835;48.850;8.938;2023-04-15T10:37:19;12.17;;;11.37;;
7587;SDS011;3835;48.850;8.938;2023-04-15T10:39:46;11.57;;;10.97;;
7587;SDS011;3835;48.850;8.938;2023-04-15T10:42:14;12.87;;;12.07;;
7587;SDS011;3835;48.850;8.938;2023-04-15T10:44:42;12.77;;;11.97;;
7587;SDS011;3835;48.850;8.938;2023-04-15T10:47:11;10.67;;;9.83;;
7587;SDS011;3835;48.850;8.938;2023-04-15T10:49:44;11.70;;;11.00;;
7587;SDS011;3835;48.850;8.938;2023-04-15T10:52:14;12.03;;;11.13;;
7587;SDS011;3835;48.850;8.938;2023-04-15T10:54:42;11.40;;;10.70;;
7587;SDS011;3835;48.850;8.938;2023-04-15T10:57:13;12.80;;;12.00;;
7587;SDS011;3835;48.850;8.938;2023-04-15T11:02:39;11.30;;;10.70;;
7587;SDS011;3835;48.850;8.938;2023-04-15T11:05:10;11.50;;;10.70;;
7587;SDS011;3835;48.850;8.938;2023-04-15T11:07:49;11.77;;;10.80;;
7587;SDS011;3835;48.850;8.938;2023-04-15T11:13:22;11.90;;;11.13;;
7587;SDS011;3835;48.850;8.938;2023-04-15T11:15:57;12.00;;;11.40;;
7587;SDS011;3835;48.850;8.938;2023-04-15T11:18:28;12.67;;;12.03;;
7587;SDS011;3835;48.850;8.938;2023-04-15T11:20:57;12.87;;;11.97;;
7587;SDS011;3835;48.850;8.938;2023-04-15T11:23:30;12.07;;;11.27;;
7587;SDS011;3835;48.850;8.938;2023-04-15T11:26:02;12.30;;;11.40;;
7587;SDS011;3835;48.850;8.938;2023-04-15T11:28:33;11.87;;;11.13;;
7587;SDS011;3835;48.850;8.938;2023-04-15T11:31:08;13.00;;;12.00;;
7587;SDS011;3835;48.850;8.938;2023-04-15T11:33:36;12.57;;;11.63;;
7587;SDS011;3835;48.850;8.938;2023-04-15T11:36:10;12.87;;;12.03;;
7587;SDS011;3835;48.850;8.938;2023-04-15T11:38:42;12.40;;;11.67;;
7587;SDS011;3835;48.850;8.938;2023-04-15T11:41:10;11.50;;;10.80;;
7587;SDS011;3835;48.850;8.938;2023-04-15T11:43:37;13.50;;;12.80;;
7587;SDS011;3835;48.850;8.938;2023-04-15T11:46:04;12.43;;;11.47;;
7587;SDS011;3835;48.850;8.938;2023-04-15T11:48:31;12.63;;;11.63;;
7587;SDS011;3835;48.850;8.938;2023-04-15T11:51:00;13.47;;;12.50;;
7587;SDS011;3835;48.850;8.938;2023-04-15T11:53:35;12.90;;;12.10;;
7587;SDS011;3835;48.850;8.938;2023-04-15T11:56:05;12.97;;;12.13;;
7587;SDS011;3835;48.850;8.938;2023-04-15T11:58:34;12.67;;;11.87;;
7587;SDS011;3835;48.850;8.938;2023-04-15T12:01:02;14.10;;;13.00;;
7587;SDS011;3835;48.850;8.938;2023-04-15T12:03:30;13.03;;;12.33;;
7587;SDS011;3835;48.850;8.938;2023-04-15T12:06:07;14.60;;;13.53;;
7587;SDS011;3835;48.850;8.938;2023-04-15T12:08:52;16.30;;;14.77;;
7587;SDS011;3835;48.850;8.938;2023-04-15T12:11:29;13.57;;;12.50;;
7587;SDS011;3835;48.850;8.938;2023-04-15T12:14:05;13.43;;;12.50;;
7587;SDS011;3835;48.850;8.938;2023-04-15T12:16:33;14.23;;;13.00;;
7587;SDS011;3835;48.850;8.938;2023-04-15T12:19:03;12.53;;;11.67;;
7587;SDS011;3835;48.850;8.938;2023-04-15T12:21:35;12.50;;;11.63;;
7587;SDS011;3835;48.850;8.938;2023-04-15T12:24:04;13.03;;;12.03;;
7587;SDS011;3835;48.850;8.938;2023-04-15T12:26:34;12.83;;;11.77;;
7587;SDS011;3835;48.850;8.938;2023-04-15T12:29:02;13.43;;;12.73;;
7587;SDS011;3835;48.850;8.938;2023-04-15T12:31:30;12.67;;;11.83;;
7587;SDS011;3835;48.850;8.938;2023-04-15T12:33:59;13.17;;;12.27;;
7587;SDS011;3835;48.850;8.938;2023-04-15T12:36:26;12.23;;;11.43;;
7587;SDS011;3835;48.850;8.938;2023-04-15T12:38:54;13.23;;;12.20;;
7587;SDS011;3835;48.850;8.938;2023-04-15T12:41:21;12.40;;;11.50;;
7587;SDS011;3835;48.850;8.938;2023-04-15T12:43:49;12.57;;;11.87;;
7587;SDS011;3835;48.850;8.938;2023-04-15T12:46:16;12.47;;;11.77;;
7587;SDS011;3835;48.850;8.938;2023-04-15T12:48:44;13.60;;;12.70;;
7587;SDS011;3835;48.850;8.938;2023-04-15T12:51:11;12.57;;;11.87;;
7587;SDS011;3835;48.850;8.938;2023-04-15T12:53:38;12.57;;;11.90;;
7587;SDS011;3835;48.850;8.938;2023-04-15T12:56:05;12.43;;;11.63;;
7587;SDS011;3835;48.850;8.938;2023-04-15T12:58:31;13.07;;;12.30;;
7587;SDS011;3835;48.850;8.938;2023-04-15T13:01:00;14.03;;;13.27;;
7587;SDS011;3835;48.850;8.938;2023-04-15T13:03:27;13.27;;;12.43;;
7587;SDS011;3835;48.850;8.938;2023-04-15T13:05:54;11.97;;;11.13;;
7587;SDS011;3835;48.850;8.938;2023-04-15T13:08:21;12.20;;;11.53;;
7587;SDS011;3835;48.850;8.938;2023-04-15T13:10:49;11.87;;;10.97;;
7587;SDS011;3835;48.850;8.938;2023-04-15T13:13:15;11.37;;;10.77;;
7587;SDS011;3835;48.850;8.938;2023-04-15T13:15:42;11.17;;;10.57;;
7587;SDS011;3835;48.850;8.938;2023-04-15T13:18:11;11.30;;;10.80;;
7587;SDS011;3835;48.850;8.938;2023-04-15T13:20:38;10.50;;;9.77;;
7587;SDS011;3835;48.850;8.938;2023-04-15T13:23:04;11.50;;;10.83;;
7587;SDS011;3835;48.850;8.938;2023-04-15T13:25:31;11.17;;;10.57;;
7587;SDS011;3835;48.850;8.938;2023-04-15T13:27:58;10.77;;;10.17;;
7587;SDS011;3835;48.850;8.938;2023-04-15T13:30:25;10.90;;;10.30;;
7587;SDS011;3835;48.850;8.938;2023-04-15T13:32:52;11.03;;;10.20;;
7587;SDS011;3835;48.850;8.938;2023-04-15T13:35:20;11.57;;;10.93;;
7587;SDS011;3835;48.850;8.938;2023-04-15T13:37:47;11.97;;;11.37;;
7587;SDS011;3835;48.850;8.938;2023-04-15T13:40:14;10.43;;;9.93;;
7587;SDS011;3835;48.850;8.938;2023-04-15T13:42:41;9.97;;;9.53;;
7587;SDS011;3835;48.850;8.938;2023-04-15T13:45:08;10.43;;;9.80;;
7587;SDS011;3835;48.850;8.938;2023-04-15T13:47:36;9.43;;;8.93;;
7587;SDS011;3835;48.850;8.938;2023-04-15T13:50:03;10.90;;;10.30;;
7587;SDS011;3835;48.850;8.938;2023-04-15T13:52:31;11.17;;;10.67;;
7587;SDS011;3835;48.850;8.938;2023-04-15T13:54:58;10.67;;;10.17;;
7587;SDS011;3835;48.850;8.938;2023-04-15T13:57:25;10.93;;;10.43;;
7587;SDS011;3835;48.850;8.938;2023-04-15T13:59:52;11.17;;;10.60;;
7587;SDS011;3835;48.850;8.938;2023-04-15T14:02:19;11.10;;;10.50;;
7587;SDS011;3835;48.850;8.938;2023-04-15T14:04:47;10.77;;;10.17;;
7587;SDS011;3835;48.850;8.938;2023-04-15T14:07:14;11.10;;;10.57;;
7587;SDS011;3835;48.850;8.938;2023-04-15T14:09:43;10.60;;;10.10;;
7587;SDS011;3835;48.850;8.938;2023-04-15T14:12:10;11.50;;;10.77;;
7587;SDS011;3835;48.850;8.938;2023-04-15T14:14:36;10.93;;;10.23;;
7587;SDS011;3835;48.850;8.938;2023-04-15T14:17:03;11.43;;;10.73;;
7587;SDS011;3835;48.850;8.938;2023-04-15T14:19:30;10.27;;;9.77;;
7587;SDS011;3835;48.850;8.938;2023-04-15T14:21:57;12.03;;;11.43;;
7587;SDS011;3835;48.850;8.938;2023-04-15T14:24:24;10.90;;;10.00;;
7587;SDS011;3835;48.850;8.938;2023-04-15T14:26:52;12.00;;;11.40;;
7587;SDS011;3835;48.850;8.938;2023-04-15T14:29:20;11.50;;;10.80;;
7587;SDS011;3835;48.850;8.938;2023-04-15T14:31:47;11.20;;;10.67;;
7587;SDS011;3835;48.850;8.938;2023-04-15T14:34:15;11.40;;;10.70;;
7587;SDS011;3835;48.850;8.938;2023-04-15T14:36:42;11.53;;;10.63;;
7587;SDS011;3835;48.850;8.938;2023-04-15T14:39:09;11.40;;;10.87;;
7587;SDS011;3835;48.850;8.938;2023-04-15T14:41:35;10.63;;;10.00;;
7587;SDS011;3835;48.850;8.938;2023-04-15T14:44:04;11.13;;;10.43;;
7587;SDS011;3835;48.850;8.938;2023-04-15T14:46:33;11.97;;;11.13;;
7587;SDS011;3835;48.850;8.938;2023-04-15T14:49:00;10.70;;;10.10;;
7587;SDS011;3835;48.850;8.938;2023-04-15T14:51:27;12.27;;;11.47;;
7587;SDS011;3835;48.850;8.938;2023-04-15T14:53:54;11.73;;;11.13;;
7587;SDS011;3835;48.850;8.938;2023-04-15T14:56:20;11.33;;;10.63;;